Time;durP1;ratioP1;P1;durP2;ratioP2;P2;SDS_P1;SDS_P2;PMS_P1;PMS_P2;Temp;Humidity;BMP_temperature;BMP_pressure;BME280_temperature;BME280_humidity;BME280_pressure;Samples;Min_cycle;Max_cycle;Signal;HPM_P1;HPM_P2
2023/06/27 00:01:16;;;;;;;14.00;3.30;;;;;;;22.19;54.50;102105.81;5031125;28;20071;-44
2023/06/27 00:03:41;;;;;;;12.25;2.92;;;;;;;22.27;54.63;102111.88;5031303;28;20025;-44
2023/06/27 00:06:06;;;;;;;13.27;3.10;;;;;;;22.29;54.43;102106.53;5030935;28;20234;-46
2023/06/27 00:08:32;;;;;;;13.45;3.38;;;;;;;21.99;56.00;102120.28;5030566;28;20128;-44
2023/06/27 00:10:58;;;;;;;13.27;3.60;;;;;;;21.90;56.20;102115.03;5030595;28;20037;-47
2023/06/27 00:13:23;;;;;;;8.05;2.90;;;;;;;22.32;54.61;102113.59;5029706;28;20516;-55
2023/06/27 00:15:52;;;;;;;13.60;3.42;;;;;;;21.97;56.33;102114.09;5030513;28;20037;-45
2023/06/27 00:18:21;;;;;;;13.05;3.58;;;;;;;21.93;56.09;102110.59;5029717;28;20159;-46
2023/06/27 00:20:50;;;;;;;12.55;3.38;;;;;;;22.13;55.53;102113.00;5030966;28;20055;-49
2023/06/27 00:23:19;;;;;;;14.35;3.40;;;;;;;21.96;55.82;102120.31;5030437;28;20527;-45
2023/06/27 00:25:46;;;;;;;14.13;3.10;;;;;;;21.93;56.28;102113.25;5030148;28;20041;-45
2023/06/27 00:28:11;;;;;;;11.32;3.05;;;;;;;22.09;55.84;102108.63;5029291;28;20079;-45
2023/06/27 00:30:36;;;;;;;13.88;3.17;;;;;;;22.12;55.37;102111.25;5030210;28;20124;-46
2023/06/27 00:33:02;;;;;;;10.07;3.33;;;;;;;22.11;55.50;102114.78;5030298;28;20057;-46
2023/06/27 00:35:32;;;;;;;13.27;3.30;;;;;;;22.02;55.85;102114.91;5029845;28;20037;-47
2023/06/27 00:37:58;;;;;;;13.32;3.65;;;;;;;21.88;56.70;102117.75;5029707;28;20526;-47
2023/06/27 00:40:23;;;;;;;10.35;3.08;;;;;;;21.79;57.59;102110.78;5030176;28;20093;-45
2023/06/27 00:42:49;;;;;;;9.73;3.00;;;;;;;21.86;57.54;102112.44;5031795;28;20061;-46
2023/06/27 00:45:14;;;;;;;14.23;3.42;;;;;;;21.80;57.55;102116.97;5030981;28;20033;-44
2023/06/27 00:47:40;;;;;;;9.93;3.05;;;;;;;21.82;57.49;102116.06;5031617;28;20041;-47
2023/06/27 00:50:07;;;;;;;11.98;3.28;;;;;;;21.96;56.88;102117.66;5031381;28;20026;-48
2023/06/27 00:52:32;;;;;;;9.80;3.00;;;;;;;21.94;56.98;102109.69;5030937;28;20041;-44
2023/06/27 00:54:59;;;;;;;8.95;3.20;;;;;;;21.96;56.82;102118.53;5031506;28;20036;-48
2023/06/27 00:57:24;;;;;;;13.70;3.33;;;;;;;21.89;57.56;102113.31;5030416;28;20084;-45
2023/06/27 00:59:50;;;;;;;16.52;3.70;;;;;;;21.82;57.87;102110.75;5030129;28;20033;-44
2023/06/27 01:02:16;;;;;;;14.02;3.47;;;;;;;21.68;58.85;102114.47;5029727;28;20038;-47
2023/06/27 01:04:41;;;;;;;13.85;3.60;;;;;;;21.65;59.31;102112.72;5030282;28;20090;-44
2023/06/27 01:07:27;;;;;;;12.70;3.00;;;;;;;21.73;58.64;102118.81;5029274;28;20029;-50
2023/06/27 01:09:59;;;;;;;12.13;3.13;;;;;;;21.86;58.13;102112.44;5029342;28;20026;-49
2023/06/27 01:12:37;;;;;;;14.45;3.72;;;;;;;21.84;58.30;102114.25;5028798;28;20049;-46
2023/06/27 01:15:03;;;;;;;14.00;3.13;;;;;;;21.82;58.31;102110.75;5031339;28;20052;-46
2023/06/27 01:17:32;;;;;;;11.13;2.97;;;;;;;21.82;58.46;102110.75;5030156;28;20094;-44
2023/06/27 01:19:59;;;;;;;11.45;3.22;;;;;;;21.70;58.76;102116.22;5031856;28;20039;-43
2023/06/27 01:22:51;;;;;;;14.20;3.33;;;;;;;21.71;58.46;102114.44;5031217;28;20120;-46
2023/06/27 01:25:17;;;;;;;15.35;3.40;;;;;;;21.70;58.58;102110.03;5029696;28;20040;-46
2023/06/27 01:27:42;;;;;;;11.43;3.30;;;;;;;21.79;58.24;102110.78;5030059;28;20029;-44
2023/06/27 01:30:08;;;;;;;14.57;3.38;;;;;;;21.77;58.06;102106.41;5030450;28;20124;-43
2023/06/27 01:32:49;;;;;;;11.70;3.33;;;;;;;21.86;58.35;102106.25;5030412;28;20727;-47
2023/06/27 01:35:27;;;;;;;11.73;3.00;;;;;;;21.91;57.86;102100.88;5028951;28;20080;-46
2023/06/27 01:38:02;;;;;;;13.75;3.25;;;;;;;21.84;57.79;102111.59;5028932;28;20029;-52
2023/06/27 01:40:29;;;;;;;14.15;3.10;;;;;;;21.95;57.72;102111.50;5028879;28;20471;-44
2023/06/27 01:43:01;;;;;;;13.52;3.58;;;;;;;21.79;58.78;102107.22;5029428;28;20089;-43
2023/06/27 01:45:28;;;;;;;10.95;2.90;;;;;;;21.86;58.27;102108.91;5028961;28;20048;-45
2023/06/27 01:47:54;;;;;;;14.80;3.65;;;;;;;21.89;58.17;102110.66;5029001;28;20026;-48
2023/06/27 01:50:20;;;;;;;9.18;2.88;;;;;;;21.87;58.22;102110.69;5028742;28;20037;-49
2023/06/27 01:52:45;;;;;;;15.68;3.33;;;;;;;21.93;58.39;102110.59;5028954;28;20044;-46
2023/06/27 01:55:10;;;;;;;8.38;3.00;;;;;;;21.97;58.06;102114.97;5028759;28;20033;-48
2023/06/27 01:57:36;;;;;;;13.77;3.60;;;;;;;22.01;57.97;102107.88;5028849;28;20449;-45
2023/06/27 02:00:02;;;;;;;10.45;3.05;;;;;;;22.04;58.09;102108.69;5029433;28;20415;-44
2023/06/27 02:02:28;;;;;;;11.65;3.10;;;;;;;22.10;57.93;102116.56;5028767;28;20554;-44
2023/06/27 02:04:53;;;;;;;12.52;3.47;;;;;;;22.09;58.16;102104.19;5029096;28;20033;-45
2023/06/27 02:07:18;;;;;;;9.07;3.20;;;;;;;22.05;58.35;102106.91;5028546;28;20029;-47
2023/06/27 02:09:44;;;;;;;9.13;3.00;;;;;;;22.14;57.91;102109.44;5029125;28;20255;-46
2023/06/27 02:12:11;;;;;;;12.20;3.30;;;;;;;22.19;57.42;102099.63;5028606;28;20041;-53
2023/06/27 02:14:38;;;;;;;10.30;3.10;;;;;;;22.19;57.60;102092.53;5028965;28;20400;-47
2023/06/27 02:17:03;;;;;;;8.77;3.13;;;;;;;22.21;57.53;102089.84;5028455;28;20087;-49
2023/06/27 02:19:29;;;;;;;13.57;3.70;;;;;;;22.18;58.01;102085.47;5028384;28;20029;-45
2023/06/27 02:21:54;;;;;;;12.85;3.72;;;;;;;22.16;57.68;102084.59;5029176;28;20033;-46
2023/06/27 02:24:19;;;;;;;11.23;3.50;;;;;;;22.13;58.05;102081.13;5032064;28;20419;-51
2023/06/27 02:26:44;;;;;;;11.95;3.10;;;;;;;21.97;58.49;102076.94;5032175;28;20046;-48
2023/06/27 02:29:11;;;;;;;9.18;3.10;;;;;;;21.97;58.38;102077.81;5032340;28;20057;-48
2023/06/27 02:31:37;;;;;;;11.73;3.65;;;;;;;21.88;58.81;102077.91;5032536;28;20496;-46
2023/06/27 02:34:02;;;;;;;14.38;3.63;;;;;;;21.64;59.28;102083.56;5032598;28;20048;-47
2023/06/27 02:36:28;;;;;;;16.10;3.75;;;;;;;21.36;60.67;102088.31;5031431;28;20033;-48
2023/06/27 02:38:57;;;;;;;11.80;3.40;;;;;;;21.61;59.58;102091.56;5032396;28;20037;-44
2023/06/27 02:41:23;;;;;;;10.40;3.58;;;;;;;21.63;59.21;102087.13;5031967;28;20037;-49
2023/06/27 02:43:48;;;;;;;11.23;3.30;;;;;;;21.51;59.60;102090.81;5032305;28;20076;-51
2023/06/27 02:46:14;;;;;;;10.70;3.00;;;;;;;21.49;59.21;102087.28;5032417;28;20069;-46
2023/06/27 02:48:39;;;;;;;8.45;3.22;;;;;;;21.41;59.18;102081.19;5031911;28;20034;-48
2023/06/27 02:51:05;;;;;;;13.70;3.47;;;;;;;21.12;61.27;102091.22;5032052;28;20550;-48
2023/06/27 02:53:30;;;;;;;11.73;3.50;;;;;;;21.21;60.86;102092.03;5031795;28;20407;-44
2023/06/27 02:55:57;;;;;;;9.40;3.17;;;;;;;21.23;60.82;102097.31;5032610;28;20034;-46
2023/06/27 02:58:23;;;;;;;7.35;2.92;;;;;;;21.20;60.65;102092.94;5031553;28;20038;-46
2023/06/27 03:00:48;;;;;;;11.10;3.10;;;;;;;21.22;61.01;102092.94;5032038;28;20458;-46
2023/06/27 03:03:14;;;;;;;6.13;2.95;;;;;;;21.23;61.20;102092.00;5031781;28;20033;-50
2023/06/27 03:05:39;;;;;;;8.02;3.10;;;;;;;21.21;61.55;102099.13;5033022;28;20026;-45
2023/06/27 03:08:04;;;;;;;9.50;3.20;;;;;;;21.22;61.40;102098.22;5031999;28;20057;-44
2023/06/27 03:10:30;;;;;;;7.80;2.92;;;;;;;21.26;61.75;102102.59;5032366;28;20040;-46
2023/06/27 03:12:55;;;;;;;6.85;2.72;;;;;;;21.26;61.38;102102.59;5032545;28;20067;-47
2023/06/27 03:15:21;;;;;;;7.70;2.80;;;;;;;21.27;61.79;102105.25;5031362;28;20468;-47
2023/06/27 03:17:46;;;;;;;7.28;2.97;;;;;;;21.25;61.83;102103.50;5031338;28;20038;-48
2023/06/27 03:20:12;;;;;;;6.97;3.00;;;;;;;21.27;61.51;102105.25;5031066;28;20033;-45
2023/06/27 03:22:37;;;;;;;9.63;3.20;;;;;;;21.30;61.53;102105.19;5031683;28;20048;-45
2023/06/27 03:25:02;;;;;;;9.80;3.22;;;;;;;21.29;61.63;102103.44;5031860;28;20087;-49
2023/06/27 03:27:28;;;;;;;10.70;3.30;;;;;;;21.27;61.81;102102.59;5030772;28;20106;-45
2023/06/27 03:29:53;;;;;;;10.07;3.50;;;;;;;21.15;62.32;102097.41;5031237;28;20095;-47
2023/06/27 03:32:18;;;;;;;9.63;3.20;;;;;;;21.21;61.88;102104.44;5030854;28;20734;-44
2023/06/27 03:34:44;;;;;;;8.32;3.30;;;;;;;21.20;61.63;102107.97;5030934;28;20312;-43
2023/06/27 03:37:09;;;;;;;8.63;2.92;;;;;;;21.24;61.67;102107.03;5030539;28;20561;-47
2023/06/27 03:39:35;;;;;;;9.05;3.00;;;;;;;21.21;61.80;102109.72;5031328;28;20030;-47
2023/06/27 03:42:00;;;;;;;10.15;3.30;;;;;;;21.20;62.00;102100.91;5031128;28;20559;-46
2023/06/27 03:44:28;;;;;;;7.75;3.40;;;;;;;21.18;61.94;102100.03;5030711;28;20048;-46
2023/06/27 03:46:53;;;;;;;8.00;3.08;;;;;;;21.12;62.12;102097.41;5030923;28;20404;-44
2023/06/27 03:49:18;;;;;;;9.00;3.33;;;;;;;21.02;62.48;102103.72;5030451;28;20037;-45
2023/06/27 03:51:44;;;;;;;12.00;3.60;;;;;;;21.00;62.50;102098.41;5031055;28;20045;-49
2023/06/27 03:54:09;;;;;;;10.55;3.15;;;;;;;20.94;62.78;102103.78;5030839;28;20037;-45
2023/06/27 03:56:35;;;;;;;8.85;3.15;;;;;;;20.96;62.84;102107.31;5030541;28;20048;-49
2023/06/27 03:59:00;;;;;;;9.27;3.10;;;;;;;21.05;62.48;102104.53;5031099;28;20072;-52
2023/06/27 04:01:25;;;;;;;9.00;3.40;;;;;;;20.95;62.56;102112.63;5028511;28;20041;-44
2023/06/27 04:03:51;;;;;;;9.77;3.28;;;;;;;20.87;63.13;102107.38;5031100;28;20030;-44
2023/06/27 04:06:17;;;;;;;7.68;3.03;;;;;;;20.97;62.51;102110.84;5029755;28;20051;-44
2023/06/27 04:08:42;;;;;;;9.75;2.80;;;;;;;21.03;62.12;102118.72;5030316;28;20041;-45
2023/06/27 04:11:07;;;;;;;13.18;3.75;;;;;;;20.99;62.16;102114.31;5030321;28;20040;-49
2023/06/27 04:13:33;;;;;;;9.15;3.20;;;;;;;21.01;62.08;102118.72;5030652;28;20041;-51
2023/06/27 04:15:58;;;;;;;11.50;3.20;;;;;;;20.91;62.35;102110.91;5030790;28;20033;-45
2023/06/27 04:18:23;;;;;;;8.15;3.28;;;;;;;20.88;62.63;102116.22;5029859;28;20033;-46
2023/06/27 04:20:49;;;;;;;10.63;3.35;;;;;;;20.88;62.75;102117.09;5030705;28;20025;-44
2023/06/27 04:23:14;;;;;;;7.60;3.42;;;;;;;20.87;62.81;102119.75;5030709;28;20140;-47
2023/06/27 04:25:43;;;;;;;10.48;3.58;;;;;;;20.79;63.26;102121.63;5031656;28;20036;-48
2023/06/27 04:28:09;;;;;;;8.73;3.15;;;;;;;20.92;62.80;102115.31;5031030;28;20555;-46
2023/06/27 04:30:34;;;;;;;9.15;3.10;;;;;;;20.98;62.43;102118.75;5031441;28;20070;-49
2023/06/27 04:33:02;;;;;;;9.10;3.20;;;;;;;21.00;62.24;102121.41;5031206;28;20034;-47
2023/06/27 04:35:28;;;;;;;13.27;3.53;;;;;;;20.82;62.77;102124.22;5030034;28;20488;-50
2023/06/27 04:37:53;;;;;;;9.57;3.40;;;;;;;20.93;62.52;102122.34;5029826;28;20098;-44
2023/06/27 04:40:20;;;;;;;8.65;3.20;;;;;;;20.83;62.83;102123.34;5029888;28;20384;-45
2023/06/27 04:42:45;;;;;;;10.20;3.10;;;;;;;20.95;62.39;102121.44;5030114;28;20119;-47
2023/06/27 04:45:11;;;;;;;9.73;3.25;;;;;;;20.91;62.76;102130.34;5029134;28;20076;-46
2023/06/27 04:47:36;;;;;;;7.30;3.05;;;;;;;20.99;62.32;102128.47;5031060;28;20034;-45
2023/06/27 04:50:03;;;;;;;8.90;3.22;;;;;;;20.91;62.88;102118.84;5030616;28;20034;-45
2023/06/27 04:52:28;;;;;;;7.60;3.10;;;;;;;20.95;62.89;102126.75;5030480;28;20052;-50
2023/06/27 04:54:54;;;;;;;8.57;3.13;;;;;;;21.03;62.74;102118.72;5030283;28;20055;-45
2023/06/27 04:57:19;;;;;;;6.57;3.05;;;;;;;21.17;62.21;102127.44;5029264;28;20029;-47
2023/06/27 04:59:45;;;;;;;7.75;2.83;;;;;;;21.25;61.95;102128.25;5029972;28;20053;-48
2023/06/27 05:02:10;;;;;;;9.27;2.90;;;;;;;21.23;61.95;102135.31;5029521;28;20074;-43
2023/06/27 05:04:36;;;;;;;11.32;3.42;;;;;;;21.34;61.52;102135.22;5029893;28;20120;-47
2023/06/27 05:07:01;;;;;;;8.82;3.38;;;;;;;21.32;61.17;102129.94;5029411;28;20060;-50
2023/06/27 05:09:27;;;;;;;8.77;3.47;;;;;;;21.25;61.12;102130.00;5029180;28;20326;-46
2023/06/27 05:11:52;;;;;;;22.77;14.65;;;;;;;21.52;60.77;102131.50;5029432;28;20068;-46
2023/06/27 05:14:17;;;;;;;9.93;2.90;;;;;;;21.62;60.13;102125.16;5029324;28;20068;-48
2023/06/27 05:16:43;;;;;;;7.90;2.90;;;;;;;21.76;58.00;102132.06;5029447;28;20100;-44
2023/06/27 05:19:08;;;;;;;9.82;2.78;;;;;;;23.02;55.24;102123.94;5029393;28;20060;-47
2023/06/27 05:21:34;;;;;;;7.40;2.50;;;;;;;23.90;51.24;102129.31;5029402;28;20026;-47
2023/06/27 05:24:06;;;;;;;8.50;2.40;;;;;;;24.62;48.38;102124.06;5029731;28;20037;-46
2023/06/27 05:26:32;;;;;;;7.40;2.28;;;;;;;25.40;45.27;102129.09;5028987;28;20031;-48
2023/06/27 05:28:59;;;;;;;6.65;1.90;;;;;;;25.91;43.86;102127.66;5029598;28;20056;-44
2023/06/27 05:31:27;;;;;;;8.38;2.08;;;;;;;26.21;42.10;102130.25;5029136;28;20038;-50
2023/06/27 05:33:54;;;;;;;5.88;1.73;;;;;;;26.20;43.29;102122.28;5029575;28;20408;-49
2023/06/27 05:36:19;;;;;;;6.40;1.65;;;;;;;26.33;42.64;102125.47;5028587;28;20065;-45
2023/06/27 05:38:45;;;;;;;6.53;1.80;;;;;;;25.95;43.19;102131.97;5029800;28;20064;-50
2023/06/27 05:41:10;;;;;;;3.60;1.70;;;;;;;26.17;43.23;102133.03;5029499;28;20030;-46
2023/06/27 05:43:35;;;;;;;4.07;1.60;;;;;;;26.91;41.43;102127.06;5030711;28;20030;-46
2023/06/27 05:46:01;;;;;;;3.55;1.63;;;;;;;27.25;40.53;102127.66;5030604;28;20030;-47
2023/06/27 05:48:26;;;;;;;4.97;1.80;;;;;;;26.93;41.42;102119.88;5029668;28;20746;-46
2023/06/27 05:50:52;;;;;;;4.82;1.80;;;;;;;27.43;39.50;102120.75;5029890;28;20030;-50
2023/06/27 05:53:17;;;;;;;8.35;1.60;;;;;;;27.70;40.62;102125.09;5029628;28;20483;-43
2023/06/27 05:55:42;;;;;;;4.28;1.60;;;;;;;27.79;38.36;102129.22;5029612;28;20037;-46
2023/06/27 05:58:08;;;;;;;5.07;1.65;;;;;;;27.30;39.51;102128.34;5031958;28;20411;-52
2023/06/27 06:00:33;;;;;;;4.35;1.52;;;;;;;27.71;39.59;102126.84;5033208;28;20120;-45
2023/06/27 06:02:58;;;;;;;4.07;1.40;;;;;;;27.75;37.90;102131.13;5032937;28;20403;-48
2023/06/27 06:05:24;;;;;;;8.23;1.70;;;;;;;28.06;37.64;102130.81;5032537;28;20041;-48
2023/06/27 06:07:49;;;;;;;5.47;1.58;;;;;;;27.84;38.16;102137.97;5031548;28;20029;-44
2023/06/27 06:10:15;;;;;;;4.60;1.73;;;;;;;27.86;38.68;102138.78;5031870;28;20043;-47
2023/06/27 06:12:40;;;;;;;10.20;1.48;;;;;;;28.53;35.71;102139.66;5031996;28;20455;-46
2023/06/27 06:15:06;;;;;;;5.15;1.33;;;;;;;28.57;34.98;102140.41;5033112;28;20260;-44
2023/06/27 06:17:32;;;;;;;4.82;1.40;;;;;;;29.01;33.93;102138.56;5031867;28;20112;-45
2023/06/27 06:19:57;;;;;;;4.45;1.80;;;;;;;29.44;33.80;102138.44;5032677;28;20546;-51
2023/06/27 06:22:22;;;;;;;6.25;1.48;;;;;;;29.25;33.41;102141.97;5032571;28;20037;-51
2023/06/27 06:24:48;;;;;;;5.00;1.38;;;;;;;30.13;30.97;102137.91;5032598;28;20033;-46
2023/06/27 06:27:13;;;;;;;3.42;1.30;;;;;;;29.11;33.29;102137.19;5032007;28;20124;-51
2023/06/27 06:29:39;;;;;;;8.82;1.52;;;;;;;29.12;32.02;102144.31;5032568;28;20183;-45
2023/06/27 06:32:05;;;;;;;3.58;1.27;;;;;;;30.19;29.92;102145.69;5032493;28;20034;-47
2023/06/27 06:34:30;;;;;;;3.28;1.00;;;;;;;29.80;30.89;102143.03;5032019;28;20033;-46
2023/06/27 06:36:56;;;;;;;5.35;1.10;;;;;;;30.83;28.65;102143.38;5032099;28;20029;-44
2023/06/27 06:39:21;;;;;;;3.05;1.30;;;;;;;30.40;29.36;102141.06;5032002;28;20113;-46
2023/06/27 06:41:46;;;;;;;3.15;1.20;;;;;;;29.82;30.45;102150.09;5032558;28;20021;-50
2023/06/27 06:44:12;;;;;;;3.28;1.10;;;;;;;29.42;31.06;102160.91;5030863;28;20360;-49
2023/06/27 06:46:38;;;;;;;4.80;1.13;;;;;;;28.11;31.92;102154.78;5031676;28;20503;-44
2023/06/27 06:49:03;;;;;;;5.38;1.30;;;;;;;28.24;32.11;102158.75;5032052;28;20033;-46
2023/06/27 06:51:29;;;;;;;4.60;1.00;;;;;;;28.87;30.86;102163.31;5031484;28;20029;-46
2023/06/27 06:53:54;;;;;;;4.38;1.10;;;;;;;28.64;30.68;102153.50;5032241;28;20038;-50
2023/06/27 06:56:20;;;;;;;3.65;1.30;;;;;;;28.43;31.13;102150.81;5031696;28;20127;-43
2023/06/27 06:58:45;;;;;;;2.42;1.00;;;;;;;29.00;29.64;102151.09;5031467;28;20029;-47
2023/06/27 07:01:10;;;;;;;4.93;1.15;;;;;;;28.55;30.89;102156.56;5032251;28;20037;-48
2023/06/27 07:03:36;;;;;;;4.68;1.20;;;;;;;28.14;31.79;102162.72;5032045;28;20041;-47
2023/06/27 07:06:01;;;;;;;3.70;1.15;;;;;;;28.96;30.77;102154.88;5028815;28;20040;-47
2023/06/27 07:08:27;;;;;;;4.70;1.10;;;;;;;29.41;29.38;102151.09;5028754;28;20049;-45
2023/06/27 07:10:52;;;;;;;4.82;1.20;;;;;;;28.63;31.36;102162.50;5031234;28;20623;-48
2023/06/27 07:13:17;;;;;;;2.67;1.17;;;;;;;29.13;30.40;102158.63;5030922;28;20542;-47
2023/06/27 07:15:43;;;;;;;2.97;1.30;;;;;;;27.36;32.47;102159.38;5031497;28;20033;-46
2023/06/27 07:18:08;;;;;;;7.10;1.40;;;;;;;26.22;35.23;102165.88;5030323;28;20384;-45
2023/06/27 07:20:33;;;;;;;8.55;1.70;;;;;;;25.96;35.95;102161.31;5031068;28;20026;-45
2023/06/27 07:22:59;;;;;;;4.35;1.38;;;;;;;26.06;35.34;102162.78;5031385;28;20038;-47
2023/06/27 07:25:24;;;;;;;6.10;1.45;;;;;;;25.96;35.99;102163.13;5030126;28;20106;-47
2023/06/27 07:27:50;;;;;;;9.50;1.55;;;;;;;26.09;35.77;102160.03;5031147;28;20514;-47
2023/06/27 07:30:15;;;;;;;4.00;1.13;;;;;;;25.57;36.24;102166.03;5030746;28;20033;-44
2023/06/27 07:32:41;;;;;;;5.35;1.20;;;;;;;25.30;36.88;102167.66;5031075;28;20120;-52
2023/06/27 07:35:07;;;;;;;5.18;1.42;;;;;;;25.18;37.85;102162.66;5030795;28;20156;-47
2023/06/27 07:37:32;;;;;;;4.13;1.40;;;;;;;25.37;37.51;102163.03;5029990;28;20502;-45
2023/06/27 07:39:58;;;;;;;3.80;1.30;;;;;;;25.76;36.91;102166.38;5031246;28;20033;-43
2023/06/27 07:42:24;;;;;;;3.67;1.10;;;;;;;25.77;37.35;102169.00;5030317;28;20419;-50
2023/06/27 07:44:49;;;;;;;3.92;1.35;;;;;;;25.46;37.89;102165.44;5031011;28;20044;-49
2023/06/27 07:47:15;;;;;;;6.93;1.33;;;;;;;25.31;37.79;102160.53;5030161;28;20038;-51
2023/06/27 07:49:40;;;;;;;4.78;1.40;;;;;;;25.18;38.53;102164.44;5030732;28;20041;-44
2023/06/27 07:52:06;;;;;;;3.53;1.20;;;;;;;25.04;37.76;102164.81;5030583;28;20034;-47
2023/06/27 07:54:32;;;;;;;4.68;1.17;;;;;;;25.20;36.95;102167.94;5030139;28;20523;-46
2023/06/27 07:56:57;;;;;;;6.00;1.40;;;;;;;24.83;39.01;102175.97;5030684;28;20034;-47
2023/06/27 07:59:23;;;;;;;5.38;1.38;;;;;;;24.82;39.21;102169.78;5030089;28;20120;-46
2023/06/27 08:01:48;;;;;;;4.85;1.40;;;;;;;24.92;39.03;102175.78;5031270;28;20151;-45
2023/06/27 08:04:15;;;;;;;5.82;1.60;;;;;;;24.50;38.73;102180.38;5031039;28;20044;-47
2023/06/27 08:06:41;;;;;;;2.50;1.27;;;;;;;25.39;37.58;102172.72;5016969;28;20096;-46
2023/06/27 08:09:06;;;;;;;5.82;1.30;;;;;;;25.09;37.05;102183.34;5018300;28;20496;-49
2023/06/27 08:11:31;;;;;;;5.30;1.45;;;;;;;25.25;37.73;102171.38;5031203;28;20410;-45
2023/06/27 08:13:57;;;;;;;6.60;1.33;;;;;;;25.04;37.78;102168.34;5030820;28;20042;-46
2023/06/27 08:16:22;;;;;;;4.72;1.38;;;;;;;24.68;38.96;102169.25;5030200;28;20108;-49
2023/06/27 08:18:48;;;;;;;3.63;1.42;;;;;;;24.64;39.83;102176.44;5029163;28;20575;-44
2023/06/27 08:21:13;;;;;;;3.67;1.35;;;;;;;24.82;38.83;102183.13;5030055;28;20107;-46
2023/06/27 08:23:38;;;;;;;2.75;1.42;;;;;;;24.90;38.20;102174.94;5030209;28;20034;-45
2023/06/27 08:26:04;;;;;;;3.95;1.13;;;;;;;25.41;37.63;102176.25;5030231;28;20037;-45
2023/06/27 08:28:29;;;;;;;5.03;1.45;;;;;;;25.31;38.03;102176.53;5029488;28;20029;-48
2023/06/27 08:30:57;;;;;;;5.10;1.20;;;;;;;25.10;38.81;102175.31;5030284;28;20037;-44
2023/06/27 08:33:23;;;;;;;4.35;1.40;;;;;;;25.58;37.72;102182.94;5030606;28;20682;-44
2023/06/27 08:35:49;;;;;;;4.55;1.40;;;;;;;24.87;38.94;102185.69;5031001;28;20048;-46
2023/06/27 08:38:14;;;;;;;6.68;1.40;;;;;;;25.31;38.52;102177.41;5028987;28;20044;-46
2023/06/27 08:40:42;;;;;;;6.13;1.42;;;;;;;24.55;40.00;102171.34;5028073;28;20488;-49
2023/06/27 08:43:10;;;;;;;4.20;1.35;;;;;;;25.11;39.11;102174.41;5029929;28;20108;-45
2023/06/27 08:45:36;;;;;;;6.35;1.55;;;;;;;24.91;39.48;102171.38;5029578;28;20112;-46
2023/06/27 08:48:05;;;;;;;4.07;1.33;;;;;;;24.90;39.31;102175.81;5029192;28;20431;-50
2023/06/27 08:50:34;;;;;;;3.47;1.30;;;;;;;24.42;39.97;102180.53;5029519;28;20029;-45
2023/06/27 08:53:04;;;;;;;4.45;1.50;;;;;;;24.31;40.80;102185.25;5028479;28;20029;-44
2023/06/27 08:55:48;;;;;;;7.18;1.35;;;;;;;24.52;40.29;102184.72;5029205;28;20033;-46
2023/06/27 08:58:15;;;;;;;5.55;1.50;;;;;;;24.75;40.23;102181.53;5027458;28;20117;-45
2023/06/27 09:00:44;;;;;;;4.20;1.45;;;;;;;25.12;39.82;102175.28;5029207;28;20029;-46
2023/06/27 09:03:11;;;;;;;5.10;1.30;;;;;;;25.08;39.72;102171.78;5028023;28;20033;-45
2023/06/27 09:05:37;;;;;;;5.75;1.40;;;;;;;25.52;39.84;102183.06;5029654;28;20112;-46
2023/06/27 09:08:02;;;;;;;5.63;1.40;;;;;;;24.68;41.10;102193.25;5028805;28;20129;-44
2023/06/27 09:10:28;;;;;;;4.20;1.33;;;;;;;25.43;40.06;102185.06;5029183;28;20036;-49
2023/06/27 09:12:54;;;;;;;8.73;1.58;;;;;;;25.21;40.46;102175.03;5029376;28;20549;-46
2023/06/27 09:15:20;;;;;;;6.40;1.40;;;;;;;25.45;39.78;102185.03;5028893;28;20082;-47
2023/06/27 09:17:46;;;;;;;4.13;1.40;;;;;;;25.29;39.74;102189.94;5029244;28;20040;-47
2023/06/27 09:20:16;;;;;;;3.33;1.30;;;;;;;24.84;40.28;102193.75;5028815;28;20041;-47
2023/06/27 09:22:41;;;;;;;5.65;1.33;;;;;;;25.21;39.80;102186.56;5029214;28;20492;-50
2023/06/27 09:25:19;;;;;;;3.75;1.40;;;;;;;25.62;39.74;102195.28;5029321;28;20132;-49
2023/06/27 09:27:45;;;;;;;5.18;1.20;;;;;;;25.73;39.40;102186.06;5009340;28;20042;-44
2023/06/27 09:30:11;;;;;;;5.20;1.20;;;;;;;26.01;38.80;102187.91;5020536;28;20063;-45
2023/06/27 09:32:55;;;;;;;11.50;1.60;;;;;;;26.49;37.17;102183.75;5028863;28;20192;-50
2023/06/27 09:35:21;;;;;;;5.68;1.10;;;;;;;26.07;36.60;102185.94;5029087;28;20033;-51
2023/06/27 09:37:46;;;;;;;4.45;1.08;;;;;;;25.97;37.33;102180.91;5027804;28;20033;-50
2023/06/27 09:40:24;;;;;;;4.35;1.50;;;;;;;25.71;36.58;102179.00;5028590;28;20443;-48
2023/06/27 09:42:54;;;;;;;4.80;1.17;;;;;;;26.31;36.02;102180.78;5029519;28;20103;-47
2023/06/27 09:45:21;;;;;;;4.57;1.30;;;;;;;26.29;36.64;102183.47;5030059;28;20044;-49
2023/06/27 09:47:50;;;;;;;8.95;1.73;;;;;;;25.55;37.29;102183.00;5029223;28;20064;-45
2023/06/27 09:50:17;;;;;;;2.85;1.20;;;;;;;26.08;35.12;102177.00;5027003;28;20396;-48
2023/06/27 09:52:53;;;;;;;12.70;1.73;;;;;;;25.75;36.61;102188.66;5030063;28;20041;-44
2023/06/27 09:55:20;;;;;;;5.00;1.48;;;;;;;26.21;34.94;102185.50;5027788;28;20128;-47
2023/06/27 09:57:46;;;;;;;5.03;1.38;;;;;;;26.05;35.92;102181.53;5027362;28;20401;-47
2023/06/27 10:00:12;;;;;;;4.20;1.30;;;;;;;26.44;36.07;102185.69;5028675;28;20431;-49
2023/06/27 10:02:37;;;;;;;4.13;1.13;;;;;;;26.14;36.40;102191.97;5028285;28;20034;-50
2023/06/27 10:05:03;;;;;;;3.53;1.25;;;;;;;26.06;35.79;102184.16;5027880;28;20547;-44
2023/06/27 10:07:32;;;;;;;4.40;1.30;;;;;;;26.34;36.04;102178.91;5027760;28;20042;-48
2023/06/27 10:09:58;;;;;;;5.25;1.42;;;;;;;25.85;35.66;102192.84;5028961;28;20037;-49
2023/06/27 10:12:24;;;;;;;7.20;1.30;;;;;;;26.07;35.33;102185.03;5027849;28;20121;-45
2023/06/27 10:14:50;;;;;;;4.45;1.33;;;;;;;25.62;35.56;102182.78;5028856;28;20135;-54
2023/06/27 10:17:18;;;;;;;5.18;1.20;;;;;;;25.71;35.73;102181.66;5028777;28;20132;-47
2023/06/27 10:19:45;;;;;;;5.90;1.70;;;;;;;25.97;34.94;102180.91;5028374;28;20053;-45
2023/06/27 10:22:14;;;;;;;4.30;1.25;;;;;;;26.28;34.38;102175.53;5029096;28;20036;-50
2023/06/27 10:24:42;;;;;;;5.10;1.30;;;;;;;26.63;34.05;102165.47;5028313;28;20068;-46
2023/06/27 10:27:09;;;;;;;4.97;1.30;;;;;;;26.33;34.56;102165.56;5028280;28;20065;-49
2023/06/27 10:29:40;;;;;;;5.50;1.50;;;;;;;26.05;34.53;102179.75;5026040;28;20041;-50
2023/06/27 10:32:10;;;;;;;5.07;1.70;;;;;;;26.28;34.23;102183.56;5028720;28;20192;-48
2023/06/27 10:34:41;;;;;;;4.70;1.38;;;;;;;26.83;33.93;102185.31;5028558;28;20067;-45
2023/06/27 10:37:28;;;;;;;5.13;1.30;;;;;;;26.47;33.46;102196.28;5028094;28;20519;-49
2023/06/27 10:39:55;;;;;;;4.53;1.30;;;;;;;26.45;33.90;102175.88;5026400;28;20091;-47
2023/06/27 10:42:20;;;;;;;5.53;1.45;;;;;;;26.34;34.06;102188.72;5027383;28;20056;-45
2023/06/27 10:45:08;;;;;;;3.53;1.20;;;;;;;26.27;34.29;102185.34;5031391;28;20064;-48
2023/06/27 10:47:43;;;;;;;9.23;1.40;;;;;;;26.91;33.47;102186.84;5031467;28;20072;-47
2023/06/27 10:50:14;;;;;;;5.05;1.40;;;;;;;26.85;33.31;102180.78;5032188;28;20041;-45
2023/06/27 10:52:57;;;;;;;4.03;1.60;;;;;;;27.20;33.39;102182.31;5032007;28;20507;-45
2023/06/27 10:55:26;;;;;;;;;;;;;;;26.99;32.36;102175.88;5033098;28;20037;-45
2023/06/27 10:58:02;;;;;;;4.35;1.48;;;;;;;27.14;32.24;102172.66;5033146;28;20004;-45
2023/06/27 11:00:30;;;;;;;5.32;1.27;;;;;;;27.58;32.64;102179.13;5032928;28;20128;-50
2023/06/27 11:02:56;;;;;;;4.05;1.48;;;;;;;27.26;31.78;102177.59;5033528;28;20087;-46
2023/06/27 11:05:47;;;;;;;6.70;1.25;;;;;;;27.00;32.26;102191.88;5032045;28;20037;-42
2023/06/27 11:08:20;;;;;;;2.85;1.20;;;;;;;26.74;32.86;102196.31;5032415;28;20119;-48
2023/06/27 11:11:06;;;;;;;6.47;1.60;;;;;;;26.72;32.28;102193.69;5032097;28;20067;-45
2023/06/27 11:13:45;;;;;;;6.40;1.70;;;;;;;26.81;32.49;102187.16;5032153;28;20091;-44
2023/06/27 11:16:11;;;;;;;6.22;1.45;;;;;;;27.11;32.41;102186.16;5032338;28;20096;-46
2023/06/27 11:18:37;;;;;;;5.93;1.55;;;;;;;27.14;32.22;102191.38;5030999;28;20052;-50
2023/06/27 11:21:03;;;;;;;3.97;1.40;;;;;;;27.19;31.43;102180.53;5031709;28;20544;-48
2023/06/27 11:23:29;;;;;;;5.22;1.42;;;;;;;26.99;32.18;102175.88;5031770;28;20381;-46